createdAt,value
2019-01-27T00:00:27.724Z,98927
2019-01-27T00:02:56.554Z,98922
2019-01-27T00:05:26.144Z,98926
2019-01-27T00:08:13.315Z,98914
2019-01-27T00:10:36.276Z,98911
2019-01-27T00:13:05.112Z,98896
2019-01-27T00:15:33.977Z,98896
2019-01-27T00:18:02.857Z,98885
2019-01-27T00:20:31.654Z,98892
2019-01-27T00:23:00.508Z,98887
2019-01-27T00:25:29.342Z,98877
2019-01-27T00:27:58.193Z,98867
2019-01-27T00:30:27.026Z,98863
2019-01-27T00:32:55.882Z,98848
2019-01-27T00:35:24.720Z,98847
2019-01-27T00:37:53.603Z,98827
2019-01-27T00:40:22.429Z,98833
2019-01-27T00:42:51.285Z,98824
2019-01-27T00:45:20.120Z,98812
2019-01-27T00:47:48.966Z,98814
2019-01-27T00:50:17.807Z,98818
2019-01-27T00:52:46.639Z,98805
2019-01-27T00:55:16.341Z,98806
2019-01-27T00:57:45.178Z,98795
2019-01-27T01:00:14.978Z,98793
2019-01-27T01:02:43.816Z,98777
2019-01-27T01:05:13.402Z,98772
2019-01-27T01:07:42.233Z,98776
2019-01-27T01:10:11.065Z,98768
2019-01-27T01:12:39.911Z,98758
2019-01-27T01:15:08.755Z,98757
2019-01-27T01:17:37.599Z,98759
2019-01-27T01:20:09.132Z,98752
2019-01-27T01:22:37.983Z,98748
2019-01-27T01:25:06.869Z,98744
2019-01-27T01:27:35.670Z,98734
2019-01-27T01:30:04.555Z,98743
2019-01-27T01:32:33.363Z,98724
2019-01-27T01:35:02.994Z,98725
2019-01-27T01:37:31.811Z,98722
2019-01-27T01:40:00.641Z,98719
2019-01-27T01:42:29.480Z,98706
2019-01-27T01:44:58.315Z,98703
2019-01-27T01:47:27.147Z,98692
2019-01-27T01:49:55.986Z,98697
2019-01-27T01:52:24.819Z,98684
2019-01-27T01:54:53.671Z,98686
2019-01-27T01:57:22.535Z,98678
2019-01-27T01:59:51.350Z,98672
2019-01-27T02:02:20.181Z,98665
2019-01-27T02:04:49.031Z,98657
2019-01-27T02:07:18.601Z,98649
2019-01-27T02:09:47.479Z,98641
2019-01-27T02:12:16.285Z,98633
2019-01-27T02:14:45.123Z,98630
2019-01-27T02:17:13.996Z,98629
2019-01-27T02:19:42.887Z,98621
2019-01-27T02:22:11.685Z,98619
2019-01-27T02:24:40.515Z,98600
2019-01-27T02:27:09.359Z,98578
2019-01-27T02:29:38.196Z,98584
2019-01-27T02:32:07.041Z,98573
2019-01-27T02:34:35.888Z,98570
2019-01-27T02:37:04.736Z,98568
2019-01-27T02:39:33.583Z,98569
2019-01-27T02:42:02.423Z,98566
2019-01-27T02:44:31.271Z,98557
2019-01-27T02:47:00.846Z,98555
2019-01-27T02:49:29.701Z,98545
2019-01-27T02:51:58.522Z,98553
2019-01-27T02:54:27.363Z,98541
2019-01-27T02:56:56.204Z,98528
2019-01-27T02:59:25.041Z,98527
2019-01-27T03:01:53.881Z,98508
2019-01-27T03:04:22.738Z,98513
2019-01-27T03:06:52.365Z,98508
2019-01-27T03:09:21.201Z,98509
2019-01-27T03:11:50.012Z,98498
2019-01-27T03:14:18.858Z,98494
2019-01-27T03:16:47.697Z,98489
2019-01-27T03:19:16.536Z,98482
2019-01-27T03:21:45.372Z,98473
2019-01-27T03:24:14.209Z,98467
2019-01-27T03:26:43.050Z,98455
2019-01-27T03:29:11.927Z,98456
2019-01-27T03:31:40.781Z,98453
2019-01-27T03:34:09.583Z,98441
2019-01-27T03:36:38.430Z,98441
2019-01-27T03:39:07.287Z,98429
2019-01-27T03:41:36.171Z,98424
2019-01-27T03:44:05.000Z,98426
2019-01-27T03:46:33.885Z,98422
2019-01-27T03:49:02.683Z,98411
2019-01-27T03:51:31.527Z,98406
2019-01-27T03:54:00.367Z,98405
2019-01-27T03:56:29.227Z,98398
2019-01-27T03:58:58.074Z,98391
2019-01-27T04:01:26.947Z,98388
2019-01-27T04:03:55.787Z,98386
2019-01-27T04:06:24.629Z,98382
2019-01-27T04:08:53.481Z,98378
2019-01-27T04:11:22.332Z,98381
2019-01-27T04:13:51.179Z,98371
2019-01-27T04:16:20.032Z,98370
2019-01-27T04:18:48.870Z,98369
2019-01-27T04:21:17.711Z,98363
2019-01-27T04:23:46.545Z,98364
2019-01-27T04:26:15.379Z,98364
2019-01-27T04:28:44.219Z,98360
2019-01-27T04:31:13.059Z,98347
2019-01-27T04:33:41.939Z,98346
2019-01-27T04:36:10.751Z,98339
2019-01-27T04:38:39.601Z,98336
2019-01-27T04:41:08.457Z,98330
2019-01-27T04:43:37.305Z,98329
2019-01-27T04:46:06.137Z,98319
2019-01-27T04:48:34.981Z,98320
2019-01-27T04:51:03.834Z,98316
2019-01-27T04:53:32.710Z,98323
2019-01-27T04:56:01.787Z,98316
2019-01-27T04:58:30.376Z,98316
2019-01-27T05:00:59.199Z,98309
2019-01-27T05:03:28.914Z,98305
2019-01-27T05:05:57.770Z,98295
2019-01-27T05:08:26.599Z,98301
2019-01-27T05:10:55.449Z,98293
2019-01-27T05:13:24.285Z,98287
2019-01-27T05:15:53.164Z,98281
2019-01-27T05:18:21.964Z,98271
2019-01-27T05:20:50.805Z,98267
2019-01-27T05:23:19.645Z,98262
2019-01-27T05:25:48.490Z,98266
2019-01-27T05:28:17.335Z,98247
2019-01-27T05:30:46.182Z,98252
2019-01-27T05:33:15.047Z,98250
2019-01-27T05:35:43.855Z,98252
2019-01-27T05:38:12.700Z,98246
2019-01-27T05:40:41.539Z,98244
2019-01-27T05:43:10.390Z,98239
2019-01-27T05:45:39.214Z,98230
2019-01-27T05:48:08.063Z,98227
2019-01-27T05:50:36.903Z,98216
2019-01-27T05:53:06.475Z,98204
2019-01-27T05:55:35.308Z,98203
2019-01-27T05:58:04.929Z,98214
2019-01-27T06:00:35.705Z,98210
2019-01-27T06:03:04.521Z,98207
2019-01-27T06:05:33.357Z,98200
2019-01-27T06:08:02.185Z,98193
2019-01-27T06:10:31.039Z,98186
2019-01-27T06:12:59.882Z,98196
2019-01-27T06:15:28.728Z,98186
2019-01-27T06:17:57.579Z,98182
2019-01-27T06:20:26.419Z,98183
2019-01-27T06:22:55.257Z,98185
2019-01-27T06:25:26.336Z,98175
2019-01-27T06:27:52.985Z,98176
2019-01-27T06:30:24.077Z,98176
2019-01-27T06:32:58.536Z,98168
2019-01-27T06:35:27.369Z,98174
2019-01-27T06:37:56.200Z,98173
2019-01-27T06:40:25.068Z,98163
2019-01-27T06:42:53.867Z,98164
2019-01-27T06:45:22.703Z,98150
2019-01-27T06:47:51.543Z,98157
2019-01-27T06:50:20.392Z,98148
2019-01-27T06:52:49.247Z,98153
2019-01-27T06:55:18.088Z,98152
2019-01-27T06:57:46.917Z,98141
2019-01-27T07:00:22.297Z,98137
2019-01-27T07:02:51.135Z,98134
2019-01-27T07:05:19.975Z,98131
2019-01-27T07:07:54.370Z,98129
2019-01-27T07:10:24.102Z,98135
2019-01-27T07:12:52.953Z,98113
2019-01-27T07:15:27.299Z,98127
2019-01-27T07:17:56.133Z,98120
2019-01-27T07:20:25.725Z,98125
2019-01-27T07:22:58.505Z,98111
2019-01-27T07:25:27.319Z,98114
2019-01-27T07:27:56.165Z,98114
2019-01-27T07:30:26.775Z,98121
2019-01-27T07:32:57.399Z,98119
2019-01-27T07:35:30.029Z,98115
2019-01-27T07:37:58.836Z,98124
2019-01-27T07:40:28.525Z,98103
2019-01-27T07:42:58.237Z,98114
2019-01-27T07:45:28.894Z,98107
2019-01-27T07:47:56.927Z,98107
2019-01-27T07:50:25.783Z,98102
2019-01-27T07:52:54.647Z,98101
2019-01-27T07:55:23.468Z,98093
2019-01-27T07:57:55.089Z,98083
2019-01-27T08:00:23.930Z,98074
2019-01-27T08:02:55.239Z,98074
2019-01-27T08:05:24.885Z,98077
2019-01-27T08:07:53.727Z,98068
2019-01-27T08:10:22.558Z,98066
2019-01-27T08:12:53.304Z,98071
2019-01-27T08:15:22.154Z,98064
2019-01-27T08:17:50.983Z,98070
2019-01-27T08:20:19.835Z,98071
2019-01-27T08:22:50.579Z,98057
2019-01-27T08:25:23.145Z,98070
2019-01-27T08:27:54.911Z,98057
2019-01-27T08:30:27.481Z,98061
2019-01-27T08:33:00.241Z,98052
2019-01-27T08:35:32.885Z,98050
2019-01-27T08:38:02.426Z,98052
2019-01-27T08:40:31.262Z,98040
2019-01-27T08:43:00.151Z,98048
2019-01-27T08:45:31.715Z,98039
2019-01-27T08:48:00.564Z,98039
2019-01-27T08:50:29.403Z,98035
2019-01-27T08:52:58.279Z,98034
2019-01-27T08:55:27.178Z,98029
2019-01-27T08:57:56.001Z,98031
2019-01-27T09:00:24.829Z,98026
2019-01-27T09:02:56.591Z,98023
2019-01-27T09:05:25.437Z,98028
2019-01-27T09:07:55.995Z,98032
2019-01-27T09:10:29.748Z,98024
2019-01-27T09:12:58.591Z,98018
2019-01-27T09:15:30.343Z,98015
2019-01-27T09:17:59.177Z,98006
2019-01-27T09:20:29.763Z,98007
2019-01-27T09:23:00.529Z,98005
2019-01-27T09:25:29.359Z,98009
2019-01-27T09:27:58.965Z,97991
2019-01-27T09:30:33.361Z,97996
2019-01-27T09:33:02.202Z,97987
2019-01-27T09:35:31.084Z,97990
2019-01-27T09:38:05.309Z,97986
2019-01-27T09:40:34.187Z,97983
2019-01-27T09:43:08.407Z,97984
2019-01-27T09:45:38.985Z,97986
2019-01-27T09:48:08.621Z,97986
2019-01-27T09:50:39.423Z,97993
2019-01-27T09:53:08.219Z,97990
2019-01-27T09:55:39.841Z,97988
2019-01-27T09:58:09.429Z,98003
2019-01-27T10:00:38.271Z,98006
2019-01-27T10:03:07.116Z,97994
2019-01-27T10:05:36.828Z,97991
2019-01-27T10:08:05.693Z,98001
2019-01-27T10:10:36.303Z,97992
2019-01-27T10:13:05.171Z,97989
2019-01-27T10:15:34.014Z,97989
2019-01-27T10:18:02.846Z,97992
2019-01-27T10:20:37.114Z,97984
2019-01-27T10:23:05.954Z,97982
2019-01-27T10:25:40.252Z,97972
2019-01-27T10:28:09.100Z,97987
2019-01-27T10:30:38.720Z,97984
2019-01-27T10:33:13.023Z,97984
2019-01-27T10:35:43.635Z,97974
2019-01-27T10:38:12.540Z,97972
2019-01-27T10:40:41.350Z,97973
2019-01-27T10:43:12.079Z,97975
2019-01-27T10:45:40.933Z,97973
2019-01-27T10:48:11.379Z,97954
2019-01-27T10:50:43.005Z,97956
2019-01-27T10:53:20.693Z,97952
2019-01-27T10:55:44.268Z,97946
2019-01-27T10:58:17.037Z,97940
2019-01-27T11:00:51.371Z,97933
2019-01-27T11:03:20.987Z,97922
2019-01-27T11:05:49.813Z,97923
2019-01-27T11:08:20.538Z,97920
2019-01-27T11:10:49.367Z,97918
2019-01-27T11:13:19.068Z,97919
2019-01-27T11:15:51.789Z,97914
2019-01-27T11:18:21.476Z,97916
2019-01-27T11:20:52.136Z,97906
2019-01-27T11:23:25.775Z,97903
2019-01-27T11:26:00.004Z,97905
2019-01-27T11:28:23.517Z,97905
2019-01-27T11:30:57.821Z,97897
2019-01-27T11:33:27.390Z,97894
2019-01-27T11:35:57.003Z,97880
2019-01-27T11:38:25.844Z,97888
2019-01-27T11:40:54.678Z,97877
2019-01-27T11:43:26.319Z,97885
2019-01-27T11:46:00.542Z,97874
2019-01-27T11:48:30.172Z,97873
2019-01-27T11:50:59.026Z,97860
2019-01-27T11:53:27.825Z,97861
2019-01-27T11:55:56.675Z,97857
2019-01-27T11:58:25.525Z,97854
2019-01-27T12:00:55.117Z,97854
2019-01-27T12:03:24.043Z,97842
2019-01-27T12:05:52.868Z,97832
2019-01-27T12:08:21.730Z,97827
2019-01-27T12:10:50.631Z,97831
2019-01-27T12:13:19.478Z,97824
2019-01-27T12:15:48.303Z,97825
2019-01-27T12:18:17.171Z,97816
2019-01-27T12:20:46.747Z,97813
2019-01-27T12:23:15.590Z,97799
2019-01-27T12:25:44.426Z,97807
2019-01-27T12:28:14.015Z,97808
2019-01-27T12:30:42.858Z,97802
2019-01-27T12:33:11.726Z,97799
2019-01-27T12:35:40.553Z,97801
2019-01-27T12:38:09.403Z,97796
2019-01-27T12:40:38.259Z,97791
2019-01-27T12:43:07.084Z,97795
2019-01-27T12:45:35.933Z,97787
2019-01-27T12:48:04.779Z,97790
2019-01-27T12:50:33.658Z,97789
2019-01-27T12:53:02.509Z,97790
2019-01-27T12:55:32.095Z,97781
2019-01-27T12:58:00.942Z,97778
2019-01-27T13:00:33.449Z,97773
2019-01-27T13:03:02.265Z,97774
2019-01-27T13:05:31.853Z,97777
2019-01-27T13:08:00.711Z,97777
2019-01-27T13:10:29.547Z,97776
2019-01-27T13:12:58.397Z,97757
2019-01-27T13:15:27.249Z,97757
2019-01-27T13:17:56.844Z,97750
2019-01-27T13:20:26.442Z,97745
2019-01-27T13:22:55.282Z,97746
2019-01-27T13:25:24.123Z,97745
2019-01-27T13:27:53.709Z,97743
2019-01-27T13:30:23.443Z,97744
2019-01-27T13:32:52.243Z,97741
2019-01-27T13:35:21.093Z,97723
2019-01-27T13:37:49.990Z,97731
2019-01-27T13:40:21.725Z,97733
2019-01-27T13:42:50.584Z,97738
2019-01-27T13:45:21.251Z,97733
2019-01-27T13:47:50.106Z,97732
2019-01-27T13:50:19.015Z,97731
2019-01-27T13:52:47.817Z,97742
2019-01-27T13:55:17.587Z,97735
2019-01-27T13:57:46.450Z,97740
2019-01-27T14:02:53.779Z,97734
2019-01-27T14:05:22.614Z,97737
2019-01-27T14:07:51.442Z,97743
2019-01-27T14:10:26.157Z,97739
2019-01-27T14:12:54.985Z,97736
2019-01-27T14:15:25.728Z,97722
2019-01-27T14:17:54.563Z,97736
2019-01-27T14:20:23.393Z,97731
2019-01-27T14:22:52.217Z,97719
2019-01-27T14:25:21.063Z,97727
2019-01-27T14:27:52.061Z,97724
2019-01-27T14:30:21.293Z,97727
2019-01-27T14:32:50.917Z,97722
2019-01-27T14:35:20.513Z,97730
2019-01-27T14:37:50.098Z,97721
2019-01-27T14:42:57.411Z,97721
2019-01-27T14:45:26.253Z,97718
2019-01-27T14:47:55.080Z,97718
2019-01-27T14:50:24.891Z,97715
2019-01-27T14:52:54.325Z,97727
2019-01-27T14:55:23.909Z,97719
2019-01-27T14:57:53.508Z,97709
2019-01-27T15:00:24.145Z,97700
2019-01-27T15:02:52.982Z,97704
2019-01-27T15:05:21.831Z,97711
2019-01-27T15:07:51.418Z,97710
2019-01-27T15:10:20.258Z,97706
2019-01-27T15:12:49.089Z,97702
2019-01-27T15:15:18.876Z,97714
2019-01-27T15:17:47.712Z,97712
2019-01-27T15:20:18.230Z,97708
2019-01-27T15:22:47.077Z,97697
2019-01-27T15:25:15.942Z,97708
2019-01-27T15:27:44.730Z,97711
2019-01-27T15:30:14.350Z,97706
2019-01-27T15:32:43.190Z,97709
2019-01-27T15:35:12.043Z,97716
2019-01-27T15:37:40.881Z,97712
2019-01-27T15:40:10.514Z,97715
2019-01-27T15:42:39.357Z,97719
2019-01-27T15:47:46.691Z,97717
2019-01-27T15:50:17.266Z,97716
2019-01-27T15:52:46.180Z,97716
2019-01-27T15:55:15.039Z,97704
2019-01-27T15:57:43.861Z,97709
2019-01-27T16:00:12.691Z,97713
2019-01-27T16:02:41.546Z,97719
2019-01-27T16:05:11.133Z,97707
2019-01-27T16:07:39.965Z,97718
2019-01-27T16:10:09.553Z,97709
2019-01-27T16:12:38.398Z,97713
2019-01-27T16:15:08.190Z,97717
2019-01-27T16:17:37.022Z,97715
2019-01-27T16:20:07.240Z,97718
2019-01-27T16:22:36.089Z,97717
2019-01-27T16:25:05.670Z,97723
2019-01-27T16:27:34.499Z,97720
2019-01-27T16:30:03.333Z,97718
2019-01-27T16:32:32.174Z,97722
2019-01-27T16:35:01.024Z,97715
2019-01-27T16:37:29.879Z,97718
2019-01-27T16:39:58.713Z,97726
2019-01-27T16:42:28.274Z,97724
2019-01-27T16:44:57.108Z,97731
2019-01-27T16:47:26.706Z,97724
2019-01-27T16:49:55.553Z,97728
2019-01-27T16:52:24.391Z,97719
2019-01-27T16:54:53.230Z,97724
2019-01-27T16:57:22.076Z,97717
2019-01-27T16:59:50.913Z,97717
2019-01-27T17:02:19.782Z,97715
2019-01-27T17:04:48.593Z,97710
2019-01-27T17:07:17.426Z,97710
2019-01-27T17:09:47.013Z,97714
2019-01-27T17:12:15.835Z,97709
2019-01-27T17:14:44.674Z,97708
2019-01-27T17:17:13.508Z,97709
2019-01-27T17:19:42.542Z,97704
2019-01-27T17:22:11.363Z,97709
2019-01-27T17:24:40.212Z,97707
2019-01-27T17:27:09.032Z,97710
2019-01-27T17:29:37.896Z,97707
2019-01-27T17:32:06.754Z,97718
2019-01-27T17:34:35.595Z,97716
2019-01-27T17:37:04.502Z,97711
2019-01-27T17:39:33.348Z,97710
2019-01-27T17:42:02.213Z,97716
2019-01-27T17:44:31.061Z,97716
2019-01-27T17:47:00.732Z,97725
2019-01-27T17:49:29.568Z,97731
2019-01-27T17:51:58.391Z,97732
2019-01-27T17:54:27.236Z,97725
2019-01-27T17:56:56.054Z,97730
2019-01-27T17:59:25.641Z,97731
2019-01-27T18:01:54.494Z,97735
2019-01-27T18:04:28.188Z,97737
2019-01-27T18:06:58.873Z,97741
2019-01-27T18:09:31.457Z,97751
2019-01-27T18:12:01.159Z,97762
2019-01-27T18:14:30.048Z,97770
2019-01-27T18:16:58.880Z,97768
2019-01-27T18:19:27.713Z,97765
2019-01-27T18:21:56.531Z,97774
2019-01-27T18:24:25.368Z,97774
2019-01-27T18:26:54.194Z,97784
2019-01-27T18:29:23.045Z,97790
2019-01-27T18:31:51.906Z,97791
2019-01-27T18:34:20.754Z,97795
2019-01-27T18:36:49.606Z,97796
2019-01-27T18:39:18.448Z,97806
2019-01-27T18:41:47.303Z,97811
2019-01-27T18:44:16.123Z,97818
2019-01-27T18:46:45.727Z,97816
2019-01-27T18:49:14.546Z,97827
2019-01-27T18:51:43.377Z,97834
2019-01-27T18:54:17.701Z,97836
2019-01-27T18:56:51.368Z,97852
2019-01-27T18:59:24.084Z,97848
2019-01-27T19:01:52.985Z,97865
2019-01-27T19:04:23.389Z,97861
2019-01-27T19:06:52.238Z,97863
2019-01-27T19:09:21.950Z,97872
2019-01-27T19:11:50.892Z,97875
2019-01-27T19:14:21.313Z,97890
2019-01-27T19:16:56.082Z,97896
2019-01-27T19:19:25.633Z,97900
2019-01-27T19:21:55.386Z,97922
2019-01-27T19:24:25.848Z,97916
2019-01-27T19:26:56.549Z,97926
2019-01-27T19:29:25.388Z,97925
2019-01-27T19:31:54.223Z,97934
2019-01-27T19:34:24.563Z,97945
2019-01-27T19:36:53.513Z,97951
2019-01-27T19:39:25.267Z,97952
2019-01-27T19:41:54.187Z,97967
2019-01-27T19:44:23.745Z,97977
2019-01-27T19:46:55.447Z,97977
2019-01-27T19:49:24.296Z,97982
2019-01-27T19:51:53.139Z,97994
2019-01-27T19:54:22.845Z,97997
2019-01-27T19:56:53.768Z,98007
2019-01-27T19:59:25.132Z,98014
2019-01-27T20:01:58.800Z,98029
2019-01-27T20:04:28.508Z,98036
2019-01-27T20:06:58.200Z,98039
2019-01-27T20:09:28.752Z,98053
2019-01-27T20:11:59.264Z,98049
2019-01-27T20:14:31.883Z,98057
2019-01-27T20:17:02.903Z,98076
2019-01-27T20:19:35.357Z,98080
2019-01-27T20:22:05.049Z,98093
2019-01-27T20:24:36.659Z,98105
2019-01-27T20:27:06.446Z,98106
2019-01-27T20:29:35.340Z,98118
2019-01-27T20:32:04.226Z,98128
2019-01-27T20:34:35.694Z,98109
2019-01-27T20:37:10.184Z,98133
2019-01-27T20:39:40.823Z,98144
2019-01-27T20:42:09.721Z,98135
2019-01-27T20:44:39.302Z,98147
2019-01-27T20:47:08.998Z,98153
2019-01-27T20:49:38.749Z,98156
2019-01-27T20:52:07.596Z,98151
2019-01-27T20:54:37.583Z,98156
2019-01-27T20:57:07.244Z,98157
2019-01-27T20:59:36.094Z,98149
2019-01-27T21:02:04.921Z,98161
2019-01-27T21:04:34.524Z,98175
2019-01-27T21:07:07.116Z,98183
2019-01-27T21:09:37.730Z,98192
2019-01-27T21:12:06.579Z,98190
2019-01-27T21:14:36.377Z,98201
2019-01-27T21:17:08.814Z,98200
2019-01-27T21:19:37.672Z,98211
2019-01-27T21:22:06.466Z,98218
2019-01-27T21:24:35.291Z,98217
2019-01-27T21:27:06.701Z,98228
2019-01-27T21:29:33.701Z,98229
2019-01-27T21:32:02.571Z,98232
2019-01-27T21:34:32.150Z,98237
2019-01-27T21:37:00.981Z,98247
2019-01-27T21:39:30.548Z,98254
2019-01-27T21:41:59.372Z,98265
2019-01-27T21:44:28.974Z,98260
2019-01-27T21:46:57.812Z,98271
2019-01-27T21:49:26.631Z,98269
2019-01-27T21:51:55.458Z,98263
2019-01-27T21:54:24.300Z,98268
2019-01-27T21:56:53.131Z,98287
2019-01-27T21:59:21.969Z,98267
2019-01-27T22:01:50.813Z,98288
2019-01-27T22:04:19.627Z,98293
2019-01-27T22:06:48.448Z,98297
2019-01-27T22:09:17.278Z,98306
2019-01-27T22:11:46.106Z,98309
2019-01-27T22:14:14.942Z,98307
2019-01-27T22:16:43.771Z,98303
2019-01-27T22:19:12.606Z,98307
2019-01-27T22:21:41.442Z,98317
2019-01-27T22:24:10.263Z,98319
2019-01-27T22:26:39.098Z,98328
2019-01-27T22:29:07.931Z,98326
2019-01-27T22:31:36.975Z,98332
2019-01-27T22:34:06.204Z,98338
2019-01-27T22:36:34.490Z,98336
2019-01-27T22:39:07.233Z,98340
2019-01-27T22:41:36.103Z,98331
2019-01-27T22:44:04.912Z,98340
2019-01-27T22:46:33.747Z,98337
2019-01-27T22:49:02.589Z,98348
2019-01-27T22:51:31.416Z,98347
2019-01-27T22:54:00.248Z,98348
2019-01-27T22:56:29.092Z,98354
2019-01-27T22:58:57.923Z,98357
2019-01-27T23:01:26.772Z,98358
2019-01-27T23:03:55.614Z,98358
2019-01-27T23:06:25.179Z,98352
2019-01-27T23:08:54.002Z,98358
2019-01-27T23:11:23.584Z,98362
2019-01-27T23:13:52.406Z,98367
2019-01-27T23:16:21.991Z,98375
2019-01-27T23:18:50.820Z,98368
2019-01-27T23:21:19.672Z,98371
2019-01-27T23:23:49.230Z,98382
2019-01-27T23:26:18.049Z,98388
2019-01-27T23:28:46.897Z,98385
2019-01-27T23:31:15.724Z,98390
2019-01-27T23:33:44.554Z,98400
2019-01-27T23:36:13.374Z,98399
2019-01-27T23:38:42.206Z,98392
2019-01-27T23:41:11.112Z,98386
2019-01-27T23:43:39.930Z,98401
2019-01-27T23:46:08.746Z,98395
2019-01-27T23:48:37.579Z,98392
2019-01-27T23:51:07.142Z,98398
2019-01-27T23:53:35.959Z,98399
2019-01-27T23:56:04.800Z,98403
2019-01-27T23:58:33.634Z,98411
